Pierron, Illinois
Current Conditions -  °F | °C
As of 5:58 PM on Sunday 28 Dec 2014 (Local Time) from KBLV Reporting Station
Clear Clear  
Wind Chill: 29°   Ceiling: Unl
Heat Index: 29°   Visibility: 10mi
Dew Point: 27°   Wind: 2mph
Humidity: 92%   Direction: 130°SE
Pressure: 30.22"   Gusts: NA
Location:  38.78°N, 89.6°W
Report Text: KBLV 282358Z AUTO 13002KT 10SM CLR M02/M03 A3022 RMK AO2 SLP242 T10171028 10024 21017 50003
Loading
Personal Weather Stations






























Interactive Weather Map New forecast layout! Learn more

10-Day Weather Forecast

Advertisements
Track Severe Weather on mobile